createdAt,value
2023-01-20T00:00:50.322Z,0.70
2023-01-20T00:01:52.072Z,0.70
2023-01-20T00:02:53.725Z,0.70
2023-01-20T00:03:57.078Z,0.70
2023-01-20T00:04:58.599Z,0.70
2023-01-20T00:06:00.226Z,0.60
2023-01-20T00:07:01.590Z,0.60
2023-01-20T00:08:03.237Z,0.60
2023-01-20T00:09:05.293Z,0.60
2023-01-20T00:10:07.509Z,0.60
2023-01-20T00:11:11.558Z,0.60
2023-01-20T00:12:13.147Z,0.60
2023-01-20T00:13:14.687Z,0.60
2023-01-20T00:14:16.643Z,0.60
2023-01-20T00:15:18.126Z,0.60
2023-01-20T00:16:19.575Z,0.60
2023-01-20T00:17:20.967Z,0.70
2023-01-20T00:18:22.660Z,0.70
2023-01-20T00:19:24.807Z,0.70
2023-01-20T00:20:26.377Z,0.70
2023-01-20T00:21:28.160Z,0.70
2023-01-20T00:22:29.824Z,0.60
2023-01-20T00:23:31.651Z,0.60
2023-01-20T00:24:33.331Z,0.60
2023-01-20T00:25:37.616Z,0.60
2023-01-20T00:26:39.124Z,0.60
2023-01-20T00:27:40.494Z,0.50
2023-01-20T00:28:42.469Z,0.60
2023-01-20T00:29:46.753Z,0.50
2023-01-20T00:30:48.207Z,0.60
2023-01-20T00:31:49.610Z,0.60
2023-01-20T00:32:51.937Z,0.60
2023-01-20T00:33:55.914Z,0.60
2023-01-20T00:34:57.551Z,0.60
2023-01-20T00:36:00.780Z,0.60
2023-01-20T00:37:02.201Z,0.60
2023-01-20T00:38:03.554Z,0.60
2023-01-20T00:39:05.400Z,0.60
2023-01-20T00:40:07.482Z,0.60
2023-01-20T00:41:09.696Z,0.50
2023-01-20T00:42:11.095Z,0.50
2023-01-20T00:43:13.271Z,0.50
2023-01-20T00:44:14.666Z,0.50
2023-01-20T00:45:16.595Z,0.50
2023-01-20T00:46:18.322Z,0.50
2023-01-20T00:47:21.025Z,0.50
2023-01-20T00:48:23.047Z,0.50
2023-01-20T00:49:24.901Z,0.50
2023-01-20T00:50:26.237Z,0.50
2023-01-20T00:51:27.721Z,0.50
2023-01-20T00:52:29.574Z,0.50
2023-01-20T00:53:31.187Z,0.50
2023-01-20T00:54:32.597Z,0.60
2023-01-20T00:55:33.972Z,0.60
2023-01-20T00:56:35.871Z,0.60
2023-01-20T00:57:37.256Z,0.60
2023-01-20T00:58:38.714Z,0.60
2023-01-20T00:59:40.091Z,0.60
2023-01-20T01:00:41.720Z,0.60
2023-01-20T01:01:43.268Z,0.60
2023-01-20T01:02:45.427Z,0.60
2023-01-20T01:03:46.862Z,0.50
2023-01-20T01:04:51.440Z,0.50
2023-01-20T01:05:52.860Z,0.50
2023-01-20T01:06:54.580Z,0.50
2023-01-20T01:07:55.986Z,0.50
2023-01-20T01:08:57.390Z,0.50
2023-01-20T01:09:58.786Z,0.50
2023-01-20T01:11:00.274Z,0.50
2023-01-20T01:12:02.032Z,0.50
2023-01-20T01:13:05.195Z,0.50
2023-01-20T01:14:06.729Z,0.50
2023-01-20T01:15:08.613Z,0.50
2023-01-20T01:16:15.186Z,0.50
2023-01-20T01:17:16.785Z,0.50
2023-01-20T01:18:18.211Z,0.50
2023-01-20T01:19:19.858Z,0.60
2023-01-20T01:20:21.317Z,0.60
2023-01-20T01:21:23.217Z,0.70
2023-01-20T01:22:25.055Z,0.70
2023-01-20T01:23:26.977Z,0.60
2023-01-20T01:24:28.517Z,0.60
2023-01-20T01:25:30.116Z,0.60
2023-01-20T01:26:31.507Z,0.60
2023-01-20T01:27:32.955Z,0.60
2023-01-20T01:28:34.548Z,0.50
2023-01-20T01:29:36.091Z,0.50
2023-01-20T01:30:38.022Z,0.50
2023-01-20T01:31:39.649Z,0.50
2023-01-20T01:32:41.130Z,0.50
2023-01-20T01:33:43.066Z,0.50
2023-01-20T01:34:44.508Z,0.50
2023-01-20T01:35:55.108Z,0.50
2023-01-20T01:36:56.883Z,0.60
2023-01-20T01:37:58.681Z,0.60
2023-01-20T01:39:00.043Z,0.50
2023-01-20T01:40:01.485Z,0.50
2023-01-20T01:41:02.939Z,0.50
2023-01-20T01:42:19.800Z,0.50
2023-01-20T01:43:26.120Z,0.50
2023-01-20T01:44:30.779Z,0.50
2023-01-20T01:45:33.364Z,0.40
2023-01-20T01:46:35.866Z,0.50
2023-01-20T01:48:07.593Z,0.50
2023-01-20T01:49:25.282Z,0.50
2023-01-20T01:50:51.657Z,0.50
2023-01-20T01:52:02.385Z,0.50
2023-01-20T01:53:05.117Z,0.50
2023-01-20T01:54:12.194Z,0.50
2023-01-20T01:55:16.167Z,0.50
2023-01-20T01:56:17.749Z,0.40
2023-01-20T01:57:19.677Z,0.40
2023-01-20T01:58:27.350Z,0.30
2023-01-20T01:59:29.104Z,0.30
2023-01-20T02:00:30.572Z,0.30
2023-01-20T02:01:35.144Z,0.40
2023-01-20T02:02:37.051Z,0.40
2023-01-20T02:04:14.610Z,0.40
2023-01-20T02:05:17.556Z,0.40
2023-01-20T02:06:21.480Z,0.40
2023-01-20T02:07:22.976Z,0.30
2023-01-20T02:08:25.815Z,0.30
2023-01-20T02:09:28.765Z,0.30
2023-01-20T02:10:31.573Z,0.30
2023-01-20T02:11:39.375Z,0.40
2023-01-20T02:12:42.771Z,0.40
2023-01-20T02:13:44.494Z,0.40
2023-01-20T02:14:52.545Z,0.50
2023-01-20T02:16:17.281Z,0.40
2023-01-20T02:17:49.466Z,0.40
2023-01-20T02:19:06.552Z,0.40
2023-01-20T02:20:35.591Z,0.30
2023-01-20T02:22:13.697Z,0.40
2023-01-20T02:23:34.277Z,0.40
2023-01-20T02:24:54.188Z,0.40
2023-01-20T02:26:05.736Z,0.40
2023-01-20T02:27:45.944Z,0.40
2023-01-20T02:29:05.567Z,0.30
2023-01-20T02:30:13.262Z,0.30
2023-01-20T02:31:52.250Z,0.30
2023-01-20T02:33:05.561Z,0.30
2023-01-20T02:34:11.288Z,0.30
2023-01-20T02:35:21.833Z,0.30
2023-01-20T02:36:43.583Z,0.30
2023-01-20T02:37:57.263Z,0.30
2023-01-20T02:39:27.646Z,0.30
2023-01-20T02:40:53.188Z,0.30
2023-01-20T02:42:09.331Z,0.30
2023-01-20T02:43:19.678Z,0.30
2023-01-20T02:44:47.444Z,0.30
2023-01-20T02:46:07.128Z,0.30
2023-01-20T02:47:12.866Z,0.30
2023-01-20T02:48:27.593Z,0.30
2023-01-20T02:49:45.607Z,0.40
2023-01-20T02:51:00.613Z,0.30
2023-01-20T02:52:10.485Z,0.30
2023-01-20T02:53:14.458Z,0.30
2023-01-20T02:54:19.105Z,0.30
2023-01-20T02:55:43.490Z,0.30
2023-01-20T02:56:57.029Z,0.30
2023-01-20T02:58:02.868Z,0.30
2023-01-20T02:59:16.608Z,0.40
2023-01-20T03:00:42.105Z,0.30
2023-01-20T03:01:52.803Z,0.30
2023-01-20T03:02:58.808Z,0.30
2023-01-20T03:04:03.122Z,0.30
2023-01-20T03:05:17.772Z,0.30
2023-01-20T03:06:23.666Z,0.30
2023-01-20T03:07:28.304Z,0.30
2023-01-20T03:08:32.369Z,0.30
2023-01-20T03:09:44.054Z,0.20
2023-01-20T03:10:47.852Z,0.20
2023-01-20T03:12:09.492Z,0.20
2023-01-20T03:13:31.834Z,0.20
2023-01-20T03:14:33.414Z,0.20
2023-01-20T03:15:52.409Z,0.20
2023-01-20T03:16:53.960Z,0.20
2023-01-20T03:17:55.705Z,0.20
2023-01-20T03:18:57.184Z,0.20
2023-01-20T03:19:58.635Z,0.30
2023-01-20T03:21:02.700Z,0.20
2023-01-20T03:22:04.556Z,0.20
2023-01-20T03:23:06.037Z,0.20
2023-01-20T03:24:07.735Z,0.20
2023-01-20T03:25:11.292Z,0.30
2023-01-20T03:26:14.754Z,0.30
2023-01-20T03:27:16.277Z,0.30
2023-01-20T03:28:17.934Z,0.30
2023-01-20T03:29:19.903Z,0.40
2023-01-20T03:30:21.943Z,0.40
2023-01-20T03:31:46.006Z,0.50
2023-01-20T03:32:49.926Z,0.50
2023-01-20T03:33:54.823Z,0.40
2023-01-20T03:34:58.318Z,0.40
2023-01-20T03:35:59.767Z,0.40
2023-01-20T03:37:01.565Z,0.40
2023-01-20T03:38:03.126Z,0.30
2023-01-20T03:39:04.960Z,0.40
2023-01-20T03:40:07.692Z,0.30
2023-01-20T03:41:23.577Z,0.30
2023-01-20T03:42:52.737Z,0.30
2023-01-20T03:44:16.854Z,0.30
2023-01-20T03:45:27.819Z,0.30
2023-01-20T03:46:52.508Z,0.30
2023-01-20T03:48:04.464Z,0.30
2023-01-20T03:49:32.746Z,0.20
2023-01-20T03:50:42.385Z,0.30
2023-01-20T03:51:53.411Z,0.30
2023-01-20T03:53:07.188Z,0.30
2023-01-20T03:54:15.504Z,0.30
2023-01-20T03:55:21.320Z,0.20
2023-01-20T03:56:37.906Z,0.20
2023-01-20T03:58:05.210Z,0.20
2023-01-20T03:59:09.246Z,0.10
2023-01-20T04:00:11.789Z,0.10
2023-01-20T04:01:17.961Z,0.20
2023-01-20T04:02:22.285Z,0.10
2023-01-20T04:03:29.991Z,0.20
2023-01-20T04:04:36.576Z,0.20
2023-01-20T04:05:40.188Z,0.20
2023-01-20T04:06:43.726Z,0.20
2023-01-20T04:07:46.775Z,0.20
2023-01-20T04:09:00.830Z,0.20
2023-01-20T04:10:10.918Z,0.10
2023-01-20T04:11:12.562Z,0.00
2023-01-20T04:12:14.307Z,0.10
2023-01-20T04:13:16.379Z,0.20
2023-01-20T04:14:17.994Z,0.20
2023-01-20T04:15:21.758Z,0.10
2023-01-20T04:16:25.531Z,0.10
2023-01-20T04:17:28.602Z,0.10
2023-01-20T04:18:30.121Z,0.00
2023-01-20T04:19:31.972Z,0.00
2023-01-20T04:20:33.470Z,0.10
2023-01-20T04:21:45.306Z,0.10
2023-01-20T04:22:56.022Z,0.10
2023-01-20T04:24:33.131Z,0.10
2023-01-20T04:25:34.767Z,0.20
2023-01-20T04:26:36.183Z,0.20
2023-01-20T04:27:37.625Z,0.20
2023-01-20T04:28:39.208Z,0.20
2023-01-20T04:29:41.552Z,0.30
2023-01-20T04:30:43.087Z,0.20
2023-01-20T04:31:44.605Z,0.30
2023-01-20T04:32:46.456Z,0.30
2023-01-20T04:33:47.860Z,0.30
2023-01-20T04:34:52.686Z,0.20
2023-01-20T04:35:54.474Z,0.20
2023-01-20T04:36:56.391Z,0.20
2023-01-20T04:37:57.762Z,0.20
2023-01-20T04:38:59.164Z,0.20
2023-01-20T04:40:00.563Z,0.20
2023-01-20T04:41:03.617Z,0.20
2023-01-20T04:42:05.443Z,0.30
2023-01-20T04:43:07.340Z,0.30
2023-01-20T04:44:08.809Z,0.30
2023-01-20T04:45:16.496Z,0.20
2023-01-20T04:46:18.314Z,0.20
2023-01-20T04:47:19.688Z,0.20
2023-01-20T04:48:21.257Z,0.20
2023-01-20T04:49:22.685Z,0.30
2023-01-20T04:50:24.045Z,0.20
2023-01-20T04:51:25.538Z,0.20
2023-01-20T04:52:27.259Z,0.20
2023-01-20T04:53:28.926Z,0.20
2023-01-20T04:54:30.337Z,0.20
2023-01-20T04:55:33.401Z,0.20
2023-01-20T04:56:34.815Z,0.20
2023-01-20T04:57:36.183Z,0.20
2023-01-20T04:58:37.549Z,0.20
2023-01-20T04:59:39.122Z,0.20
2023-01-20T05:00:41.884Z,0.20
2023-01-20T05:01:44.930Z,0.20
2023-01-20T05:02:47.215Z,0.20
2023-01-20T05:03:48.681Z,0.20
2023-01-20T05:04:50.045Z,0.20
2023-01-20T05:05:55.130Z,0.20
2023-01-20T05:06:57.048Z,0.20
2023-01-20T05:07:59.674Z,0.30
2023-01-20T05:09:01.149Z,0.30
2023-01-20T05:10:02.709Z,0.20
2023-01-20T05:11:04.855Z,0.30
2023-01-20T05:12:06.389Z,0.20
2023-01-20T05:13:07.810Z,0.20
2023-01-20T05:14:10.193Z,0.10
2023-01-20T05:15:11.688Z,0.10
2023-01-20T05:16:13.403Z,0.10
2023-01-20T05:17:15.020Z,0.10
2023-01-20T05:18:16.523Z,0.20
2023-01-20T05:19:18.176Z,0.20
2023-01-20T05:20:20.762Z,0.20
2023-01-20T05:21:22.208Z,0.10
2023-01-20T05:22:24.547Z,0.00
2023-01-20T05:23:26.157Z,0.00
2023-01-20T05:24:27.628Z,0.00
2023-01-20T05:25:29.086Z,0.00
2023-01-20T05:26:30.566Z,-0.10
2023-01-20T05:27:35.600Z,-0.10
2023-01-20T05:28:37.034Z,-0.10
2023-01-20T05:29:38.536Z,-0.10
2023-01-20T05:30:39.956Z,-0.10
2023-01-20T05:31:43.457Z,-0.20
2023-01-20T05:32:46.306Z,-0.20
2023-01-20T05:33:47.692Z,-0.20
2023-01-20T05:34:49.144Z,-0.20
2023-01-20T05:35:50.828Z,-0.20
2023-01-20T05:36:54.984Z,-0.20
2023-01-20T05:37:56.465Z,-0.20
2023-01-20T05:38:57.888Z,-0.20
2023-01-20T05:39:59.429Z,-0.20
2023-01-20T05:41:08.953Z,-0.20
2023-01-20T05:42:10.387Z,-0.20
2023-01-20T05:43:13.099Z,-0.30
2023-01-20T05:44:15.878Z,-0.30
2023-01-20T05:45:17.609Z,-0.30
2023-01-20T05:46:20.156Z,-0.20
2023-01-20T05:47:21.794Z,-0.20
2023-01-20T05:48:23.287Z,-0.20
2023-01-20T05:49:24.914Z,-0.20
2023-01-20T05:50:27.766Z,-0.20
2023-01-20T05:51:29.197Z,-0.30
2023-01-20T05:52:31.266Z,-0.30
2023-01-20T05:53:32.792Z,-0.30
2023-01-20T05:54:34.262Z,-0.30
2023-01-20T05:55:36.207Z,-0.30
2023-01-20T05:56:37.587Z,-0.30
2023-01-20T05:57:38.993Z,-0.30
2023-01-20T05:58:40.765Z,-0.40
2023-01-20T05:59:42.394Z,-0.50
2023-01-20T06:00:43.811Z,-0.50
2023-01-20T06:01:45.591Z,-0.50
2023-01-20T06:02:47.130Z,-0.50
2023-01-20T06:03:48.771Z,-0.60
2023-01-20T06:04:50.230Z,-0.60
2023-01-20T06:05:51.658Z,-0.60
2023-01-20T06:06:53.062Z,-0.70
2023-01-20T06:07:55.566Z,-0.70
2023-01-20T06:08:57.104Z,-0.70
2023-01-20T06:09:58.707Z,-0.80
2023-01-20T06:11:00.101Z,-0.80
2023-01-20T06:12:01.990Z,-0.80
2023-01-20T06:13:03.442Z,-0.80
2023-01-20T06:14:05.106Z,-0.80
2023-01-20T06:15:06.939Z,-0.80
2023-01-20T06:16:08.420Z,-0.90
2023-01-20T06:17:10.894Z,-0.90
2023-01-20T06:18:12.825Z,-0.70
2023-01-20T06:19:14.451Z,-0.70
2023-01-20T06:20:17.435Z,-0.70
2023-01-20T06:21:18.899Z,-0.70
2023-01-20T06:22:21.481Z,-0.70
2023-01-20T06:23:22.967Z,-0.70
2023-01-20T06:24:24.647Z,-0.70
2023-01-20T06:25:26.102Z,-0.70
2023-01-20T06:26:27.588Z,-0.80
2023-01-20T06:27:29.332Z,-0.80
2023-01-20T06:28:32.841Z,-0.90
2023-01-20T06:29:34.303Z,-0.90
2023-01-20T06:30:36.112Z,-1.00
2023-01-20T06:31:37.691Z,-1.00
2023-01-20T06:32:39.077Z,-1.00
2023-01-20T06:33:40.694Z,-1.00
2023-01-20T06:34:42.077Z,-1.00
2023-01-20T06:35:43.507Z,-1.10
2023-01-20T06:36:44.914Z,-1.00
2023-01-20T06:37:46.919Z,-1.00
2023-01-20T06:38:50.743Z,-0.90
2023-01-20T06:39:52.500Z,-0.90
2023-01-20T06:41:02.029Z,-0.90
2023-01-20T06:42:04.124Z,-0.80
2023-01-20T06:43:05.496Z,-0.90
2023-01-20T06:44:06.876Z,-0.90
2023-01-20T06:45:09.334Z,-1.00
2023-01-20T06:46:13.463Z,-1.10
2023-01-20T06:47:14.856Z,-1.20
2023-01-20T06:48:16.380Z,-1.20
2023-01-20T06:49:18.278Z,-1.20
2023-01-20T06:50:20.062Z,-1.10
2023-01-20T06:51:21.573Z,-1.20
2023-01-20T06:52:23.833Z,-1.20
2023-01-20T06:53:25.345Z,-1.10
2023-01-20T06:54:27.248Z,-1.20
2023-01-20T06:55:28.967Z,-1.10
2023-01-20T06:56:30.349Z,-1.00
2023-01-20T06:57:31.849Z,-1.00
2023-01-20T06:58:33.915Z,-1.10
2023-01-20T06:59:35.303Z,-1.10
2023-01-20T07:00:37.073Z,-1.10
2023-01-20T07:01:39.311Z,-1.10
2023-01-20T07:02:40.838Z,-1.10
2023-01-20T07:03:45.801Z,-1.10
2023-01-20T07:04:47.163Z,-1.00
2023-01-20T07:05:59.696Z,-1.10
2023-01-20T07:07:01.359Z,-1.10
2023-01-20T07:08:03.097Z,-1.10
2023-01-20T07:09:06.937Z,-1.10
2023-01-20T07:10:09.404Z,-1.20
2023-01-20T07:11:10.836Z,-1.20
2023-01-20T07:12:12.276Z,-1.20
2023-01-20T07:13:13.675Z,-1.10
2023-01-20T07:14:15.073Z,-1.10
2023-01-20T07:15:16.688Z,-1.10
2023-01-20T07:16:18.858Z,-1.10
2023-01-20T07:17:20.500Z,-1.10
2023-01-20T07:18:21.916Z,-1.20
2023-01-20T07:19:23.503Z,-1.20
2023-01-20T07:20:24.923Z,-1.20
2023-01-20T07:21:27.104Z,-1.10
2023-01-20T07:22:28.744Z,-1.20
2023-01-20T07:23:32.558Z,-1.20
2023-01-20T07:24:34.038Z,-1.20
2023-01-20T07:25:37.965Z,-1.20
2023-01-20T07:26:39.443Z,-1.10
2023-01-20T07:27:42.350Z,-1.10
2023-01-20T07:28:44.031Z,-1.10
2023-01-20T07:29:45.452Z,-1.00
2023-01-20T07:30:47.258Z,-1.00
2023-01-20T07:31:48.691Z,-1.10
2023-01-20T07:32:50.560Z,-0.90
2023-01-20T07:33:52.593Z,-1.00
2023-01-20T07:34:54.022Z,-1.00
2023-01-20T07:35:55.465Z,-1.00
2023-01-20T07:36:56.845Z,-1.00
2023-01-20T07:37:58.488Z,-1.00
2023-01-20T07:39:00.324Z,-1.00
2023-01-20T07:40:01.921Z,-1.00
2023-01-20T07:41:06.333Z,-1.00
2023-01-20T07:42:07.855Z,-1.00
2023-01-20T07:43:10.817Z,-1.00
2023-01-20T07:44:12.199Z,-1.00
2023-01-20T07:45:14.224Z,-0.90
2023-01-20T07:46:15.824Z,-0.80
2023-01-20T07:47:17.247Z,-0.90
2023-01-20T07:48:18.593Z,-0.80
2023-01-20T07:49:20.264Z,-0.80
2023-01-20T07:50:21.713Z,-0.70
2023-01-20T07:51:23.506Z,-0.70
2023-01-20T07:52:25.429Z,-0.70
2023-01-20T07:53:26.825Z,-0.70
2023-01-20T07:54:28.243Z,-0.70
2023-01-20T07:55:29.734Z,-0.60
2023-01-20T07:56:31.247Z,-0.60
2023-01-20T07:57:33.473Z,-0.60
2023-01-20T07:58:35.148Z,-0.60
2023-01-20T07:59:36.569Z,-0.60
2023-01-20T08:00:38.131Z,-0.60
2023-01-20T08:01:40.437Z,-0.50
2023-01-20T08:02:42.059Z,-0.50
2023-01-20T08:03:44.898Z,-0.40
2023-01-20T08:04:47.415Z,-0.40
2023-01-20T08:05:50.125Z,-0.40
2023-01-20T08:06:52.357Z,-0.40
2023-01-20T08:07:54.788Z,-0.40
2023-01-20T08:09:03.382Z,-0.30
2023-01-20T08:10:05.589Z,-0.40
2023-01-20T08:11:08.355Z,-0.30
2023-01-20T08:12:09.900Z,-0.30
2023-01-20T08:13:11.703Z,-0.20
2023-01-20T08:14:13.339Z,-0.20
2023-01-20T08:15:14.988Z,-0.20
2023-01-20T08:16:17.640Z,-0.20
2023-01-20T08:17:19.052Z,-0.20
2023-01-20T08:18:20.484Z,-0.20
2023-01-20T08:19:21.901Z,-0.20
2023-01-20T08:20:23.618Z,-0.10
2023-01-20T08:21:27.845Z,-0.10
2023-01-20T08:22:29.331Z,-0.10
2023-01-20T08:23:30.734Z,0.00
2023-01-20T08:24:32.567Z,0.00
2023-01-20T08:25:34.236Z,0.00
2023-01-20T08:26:36.107Z,0.00
2023-01-20T08:27:37.554Z,0.10
2023-01-20T08:28:39.162Z,0.10
2023-01-20T08:29:40.591Z,0.10
2023-01-20T08:30:42.365Z,0.10
2023-01-20T08:31:44.056Z,0.10
2023-01-20T08:32:45.554Z,0.20
2023-01-20T08:33:47.863Z,0.20
2023-01-20T08:34:49.336Z,0.30
2023-01-20T08:35:50.819Z,0.30
2023-01-20T08:36:54.099Z,0.30
2023-01-20T08:37:55.567Z,0.40
2023-01-20T08:38:58.247Z,0.40
2023-01-20T08:39:59.744Z,0.40
2023-01-20T08:41:01.556Z,0.50
2023-01-20T08:42:03.170Z,0.50
2023-01-20T08:43:04.539Z,0.50
2023-01-20T08:44:07.752Z,0.50
2023-01-20T08:45:09.868Z,0.50
2023-01-20T08:46:13.675Z,0.60
2023-01-20T08:47:15.122Z,0.60
2023-01-20T08:48:19.396Z,0.60
2023-01-20T08:49:22.775Z,0.60
2023-01-20T08:50:24.666Z,0.70
2023-01-20T08:51:31.351Z,0.70
2023-01-20T08:52:34.095Z,0.80
2023-01-20T08:53:35.713Z,0.80
2023-01-20T08:54:37.815Z,0.90
2023-01-20T08:55:39.177Z,0.90
2023-01-20T08:56:40.708Z,0.90
2023-01-20T08:57:42.404Z,1.00
2023-01-20T08:58:44.972Z,1.00
2023-01-20T08:59:47.319Z,1.00
2023-01-20T09:00:48.745Z,1.00
2023-01-20T09:01:50.521Z,1.10
2023-01-20T09:02:53.725Z,1.10
2023-01-20T09:04:05.419Z,1.10
2023-01-20T09:05:08.884Z,1.10
2023-01-20T09:06:11.499Z,1.10
2023-01-20T09:07:13.020Z,1.10
2023-01-20T09:08:15.629Z,1.20
2023-01-20T09:09:19.387Z,1.20
2023-01-20T09:10:21.291Z,1.20
2023-01-20T09:11:27.518Z,1.20
2023-01-20T09:12:28.908Z,1.20
2023-01-20T09:13:30.669Z,1.20
2023-01-20T09:14:32.482Z,1.20
2023-01-20T09:15:33.845Z,1.30
2023-01-20T09:16:35.707Z,1.30
2023-01-20T09:17:37.263Z,1.30
2023-01-20T09:18:38.770Z,1.30
2023-01-20T09:19:40.549Z,1.30
2023-01-20T09:20:42.145Z,1.30
2023-01-20T09:21:44.059Z,1.30
2023-01-20T09:22:45.450Z,1.40
2023-01-20T09:23:48.258Z,1.40
2023-01-20T09:24:49.648Z,1.40
2023-01-20T09:25:51.390Z,1.40
2023-01-20T09:26:53.282Z,1.40
2023-01-20T09:27:54.669Z,1.40
2023-01-20T09:28:56.221Z,1.40
2023-01-20T09:29:58.000Z,1.40
2023-01-20T09:31:08.362Z,1.40
2023-01-20T09:32:12.955Z,1.50
2023-01-20T09:33:14.407Z,1.50
2023-01-20T09:34:19.687Z,1.50
2023-01-20T09:35:21.462Z,1.50
2023-01-20T09:36:23.284Z,1.60
2023-01-20T09:37:43.469Z,1.60
2023-01-20T09:39:04.233Z,1.60
2023-01-20T09:40:25.021Z,1.70
2023-01-20T09:41:50.189Z,1.70
2023-01-20T09:43:38.400Z,1.70
2023-01-20T09:44:54.705Z,1.80
2023-01-20T09:46:37.006Z,1.80
2023-01-20T09:47:43.501Z,1.80
2023-01-20T09:49:22.645Z,1.80
2023-01-20T09:50:57.970Z,1.80
2023-01-20T09:52:47.713Z,1.90
2023-01-20T09:53:56.717Z,1.90
2023-01-20T09:55:19.720Z,2.00
2023-01-20T09:56:24.143Z,2.00
2023-01-20T09:57:29.858Z,2.00
2023-01-20T09:58:41.979Z,2.00
2023-01-20T09:59:50.877Z,2.10
2023-01-20T10:01:11.524Z,2.20
2023-01-20T10:02:26.398Z,2.20
2023-01-20T10:03:37.247Z,2.20
2023-01-20T10:04:50.791Z,2.20
2023-01-20T10:05:56.957Z,2.10
2023-01-20T10:07:17.149Z,2.00
2023-01-20T10:08:35.979Z,2.00
2023-01-20T10:09:56.889Z,2.10
2023-01-20T10:11:13.711Z,1.90
2023-01-20T10:12:30.941Z,1.80
2023-01-20T10:13:47.191Z,1.70
2023-01-20T10:14:50.969Z,1.70
2023-01-20T10:15:57.156Z,1.70
2023-01-20T10:17:04.753Z,1.60
2023-01-20T10:18:17.995Z,1.50
2023-01-20T10:19:35.311Z,1.50
2023-01-20T10:20:42.273Z,1.50
2023-01-20T10:21:54.004Z,1.40
2023-01-20T10:23:12.196Z,1.50
2023-01-20T10:24:20.695Z,1.40
2023-01-20T10:25:30.442Z,1.40
2023-01-20T10:26:41.804Z,1.50
2023-01-20T10:28:18.259Z,1.50
2023-01-20T10:29:38.714Z,1.60
2023-01-20T10:30:40.615Z,1.70
2023-01-20T10:32:00.314Z,1.70
2023-01-20T10:33:13.213Z,1.70
2023-01-20T10:34:20.128Z,1.80
2023-01-20T10:35:28.253Z,1.90
2023-01-20T10:36:31.455Z,2.10
2023-01-20T10:37:33.136Z,2.10
2023-01-20T10:38:37.400Z,2.20
2023-01-20T10:39:48.246Z,2.30
2023-01-20T10:40:57.198Z,2.20
2023-01-20T10:42:12.390Z,2.10
2023-01-20T10:43:16.059Z,2.20
2023-01-20T10:44:17.781Z,2.30
2023-01-20T10:45:30.128Z,2.30
2023-01-20T10:47:01.420Z,2.30
2023-01-20T10:48:21.385Z,2.30
2023-01-20T10:49:46.813Z,2.20
2023-01-20T10:50:54.674Z,2.30
2023-01-20T10:52:17.378Z,2.10
2023-01-20T10:53:39.409Z,2.00
2023-01-20T10:54:46.846Z,1.80
2023-01-20T10:55:58.025Z,1.80
2023-01-20T10:57:01.957Z,1.80
2023-01-20T10:58:15.184Z,1.80
2023-01-20T10:59:21.322Z,1.70
2023-01-20T11:00:27.339Z,1.70
2023-01-20T11:01:28.767Z,1.70
2023-01-20T11:02:34.881Z,1.70
2023-01-20T11:03:40.698Z,1.90
2023-01-20T11:04:42.407Z,2.00
2023-01-20T11:05:45.371Z,2.10
2023-01-20T11:06:55.906Z,2.20
2023-01-20T11:07:59.433Z,2.40
2023-01-20T11:09:19.398Z,2.50
2023-01-20T11:10:24.934Z,2.60
2023-01-20T11:11:27.162Z,2.50
2023-01-20T11:12:34.631Z,2.50
2023-01-20T11:13:36.100Z,2.60
2023-01-20T11:14:37.888Z,2.60
2023-01-20T11:15:45.061Z,2.70
2023-01-20T11:16:53.897Z,2.70
2023-01-20T11:18:13.915Z,2.80
2023-01-20T11:19:15.595Z,2.90
2023-01-20T11:20:20.647Z,2.80
2023-01-20T11:21:27.786Z,2.60
2023-01-20T11:22:32.981Z,2.50
2023-01-20T11:23:57.415Z,2.40
2023-01-20T11:25:01.127Z,2.40
2023-01-20T11:26:11.445Z,2.30
2023-01-20T11:27:17.080Z,2.30
2023-01-20T11:28:19.798Z,2.30
2023-01-20T11:29:21.149Z,2.30
2023-01-20T11:30:35.522Z,2.20
2023-01-20T11:31:50.541Z,2.30
2023-01-20T11:33:22.776Z,2.40
2023-01-20T11:34:30.954Z,2.50
2023-01-20T11:35:32.411Z,2.50
2023-01-20T11:36:33.826Z,2.70
2023-01-20T11:37:38.621Z,2.80
2023-01-20T11:38:46.387Z,2.70
2023-01-20T11:39:51.300Z,2.60
2023-01-20T11:40:57.467Z,2.60
2023-01-20T11:42:18.087Z,2.60
2023-01-20T11:43:36.300Z,2.60
2023-01-20T11:44:53.932Z,2.60
2023-01-20T11:46:33.343Z,2.50
2023-01-20T11:47:37.306Z,2.50
2023-01-20T11:48:38.948Z,2.40
2023-01-20T11:49:40.489Z,2.30
2023-01-20T11:50:56.278Z,2.40
2023-01-20T11:51:58.230Z,2.40
2023-01-20T11:53:32.691Z,2.30
2023-01-20T11:54:35.879Z,2.30
2023-01-20T11:55:48.331Z,2.30
2023-01-20T11:56:55.210Z,2.20
2023-01-20T11:58:00.862Z,2.40
2023-01-20T11:59:04.281Z,2.50
2023-01-20T12:00:28.435Z,2.60
2023-01-20T12:01:49.094Z,2.60
2023-01-20T12:03:21.407Z,2.50
2023-01-20T12:04:47.301Z,2.40
2023-01-20T12:06:08.115Z,2.40
2023-01-20T12:07:14.776Z,2.30
2023-01-20T12:08:43.527Z,2.20
2023-01-20T12:09:50.667Z,2.20
2023-01-20T12:10:55.760Z,2.20
2023-01-20T12:12:03.414Z,2.20
2023-01-20T12:13:24.785Z,2.10
2023-01-20T12:14:34.372Z,2.10
2023-01-20T12:15:44.403Z,2.00
2023-01-20T12:17:07.736Z,2.00
2023-01-20T12:18:17.881Z,1.90
2023-01-20T12:19:27.514Z,1.90
2023-01-20T12:20:54.069Z,1.90
2023-01-20T12:22:01.147Z,1.90
2023-01-20T12:23:21.065Z,1.90
2023-01-20T12:24:57.108Z,1.80
2023-01-20T12:26:03.112Z,1.70
2023-01-20T12:27:04.711Z,1.70
2023-01-20T12:28:15.384Z,1.70
2023-01-20T12:29:31.438Z,1.70
2023-01-20T12:30:57.214Z,1.60
2023-01-20T12:32:00.931Z,1.50
2023-01-20T12:33:03.087Z,1.60
2023-01-20T12:34:12.645Z,1.50
2023-01-20T12:35:15.172Z,1.50
2023-01-20T12:36:47.609Z,1.40
2023-01-20T12:38:07.222Z,1.40
2023-01-20T12:39:46.112Z,1.40
2023-01-20T12:40:54.669Z,1.40
2023-01-20T12:42:10.974Z,1.30
2023-01-20T12:43:32.054Z,1.30
2023-01-20T12:44:45.128Z,1.30
2023-01-20T12:46:02.691Z,1.40
2023-01-20T12:47:29.155Z,1.40
2023-01-20T12:48:53.398Z,1.50
2023-01-20T12:50:13.595Z,1.40
2023-01-20T12:51:27.773Z,1.40
2023-01-20T12:52:50.304Z,1.50
2023-01-20T12:54:48.439Z,1.50
2023-01-20T12:56:27.443Z,1.50
2023-01-20T12:57:50.537Z,1.50
2023-01-20T12:59:17.262Z,1.60
2023-01-20T13:00:36.765Z,1.60
2023-01-20T13:01:54.145Z,1.60
2023-01-20T13:03:10.384Z,1.60
2023-01-20T13:05:05.403Z,1.60
2023-01-20T13:06:28.538Z,1.70
2023-01-20T13:07:44.789Z,1.60
2023-01-20T13:08:53.638Z,1.60
2023-01-20T13:10:28.638Z,1.70
2023-01-20T13:12:17.908Z,1.80
2023-01-20T13:13:56.934Z,1.80
2023-01-20T13:15:09.941Z,1.80
2023-01-20T13:16:24.113Z,1.90
2023-01-20T13:17:48.523Z,1.90
2023-01-20T13:18:49.935Z,2.00
2023-01-20T13:19:57.417Z,2.00
2023-01-20T13:20:58.975Z,2.00
2023-01-20T13:22:16.720Z,2.10
2023-01-20T13:23:33.454Z,2.10
2023-01-20T13:24:35.381Z,2.10
2023-01-20T13:25:38.612Z,2.20
2023-01-20T13:26:40.118Z,2.20
2023-01-20T13:27:42.830Z,2.30
2023-01-20T13:28:52.872Z,2.40
2023-01-20T13:30:00.066Z,2.60
2023-01-20T13:31:22.300Z,2.80
2023-01-20T13:32:39.865Z,2.90
2023-01-20T13:33:42.338Z,3.10
2023-01-20T13:34:43.972Z,3.30
2023-01-20T13:35:48.523Z,3.40
2023-01-20T13:37:16.190Z,3.60
2023-01-20T13:38:24.694Z,3.60
2023-01-20T13:39:39.554Z,3.70
2023-01-20T13:40:45.604Z,3.70
2023-01-20T13:41:53.145Z,3.80
2023-01-20T13:42:54.811Z,3.90
2023-01-20T13:43:56.381Z,3.90
2023-01-20T13:45:13.095Z,3.70
2023-01-20T13:46:15.660Z,3.60
2023-01-20T13:48:03.167Z,3.50
2023-01-20T13:49:27.677Z,3.30
2023-01-20T13:50:37.243Z,3.10
2023-01-20T13:51:38.555Z,3.00
2023-01-20T13:52:52.262Z,2.90
2023-01-20T13:53:54.181Z,2.70
2023-01-20T13:54:57.600Z,2.60
2023-01-20T13:56:00.947Z,2.50
2023-01-20T13:57:32.794Z,2.40
2023-01-20T13:58:34.830Z,2.30
2023-01-20T13:59:37.769Z,2.20
2023-01-20T14:00:39.176Z,2.20
2023-01-20T14:01:40.764Z,2.10
2023-01-20T14:02:42.234Z,2.10
2023-01-20T14:03:43.931Z,2.10
2023-01-20T14:04:47.490Z,2.10
2023-01-20T14:05:57.136Z,2.20
2023-01-20T14:06:58.639Z,2.10
2023-01-20T14:08:01.026Z,2.00
2023-01-20T14:09:03.861Z,2.00
2023-01-20T14:10:05.854Z,1.90
2023-01-20T14:11:21.989Z,1.90
2023-01-20T14:12:23.514Z,1.90
2023-01-20T14:13:25.316Z,1.90
2023-01-20T14:14:27.878Z,1.80
2023-01-20T14:15:34.659Z,1.80
2023-01-20T14:16:36.144Z,1.80
2023-01-20T14:17:38.324Z,1.80
2023-01-20T14:18:40.980Z,1.80
2023-01-20T14:19:48.426Z,1.80
2023-01-20T14:20:57.183Z,1.80
2023-01-20T14:22:04.391Z,1.70
2023-01-20T14:23:25.223Z,1.70
2023-01-20T14:24:35.669Z,1.70
2023-01-20T14:25:37.120Z,1.70
2023-01-20T14:26:38.561Z,1.60
2023-01-20T14:27:44.591Z,1.60
2023-01-20T14:28:48.650Z,1.60
2023-01-20T14:29:54.798Z,1.60
2023-01-20T14:31:18.839Z,1.60
2023-01-20T14:32:28.437Z,1.60
2023-01-20T14:33:30.596Z,1.50
2023-01-20T14:34:33.980Z,1.50
2023-01-20T14:35:35.826Z,1.50
2023-01-20T14:36:37.231Z,1.50
2023-01-20T14:37:39.875Z,1.60
2023-01-20T14:38:55.758Z,1.50
2023-01-20T14:40:25.640Z,1.50
2023-01-20T14:41:45.663Z,1.50
2023-01-20T14:43:01.720Z,1.40
2023-01-20T14:44:03.753Z,1.40
2023-01-20T14:45:19.251Z,1.30
2023-01-20T14:46:21.396Z,1.30